COOK1: Arkansas River Nr Coolidge, KS

                                SHEF ID:       COOK1     ARKANSAS R NR COOLIDGE, KS
STATION TYPE:
Regulating: Stage = 8.00, Flow = 2041

PRECIP STAGE STAGE(2) RIV-FLOW WTR-TEMP CONDUCT BAT-LOAD
in ft ft cfs F umho/cm volt
Ccp-Rev Ccp-Rev Ccp-Rev Ccp-Rev Ccp-Rev Ccp-Rev Ccp-Rev
(America/Chicago)
04/26 00:00 0.00 1.76 ---- 15 55.06 7130 12.46
04/26 01:00 0.00 1.76 ---- 15 54.50 7130 12.44
04/26 02:00 0.00 1.76 ---- 15 53.73 7115 12.40
04/26 03:00 0.00 1.75 ---- 15 53.24 7108 12.40
04/26 04:00 0.00 1.75 ---- 15 52.75 7105 12.37
04/26 05:00 0.00 1.75 ---- 15 52.25 7094 12.35
04/26 06:00 0.00 1.74 ---- 14 51.84 7105 12.32
04/26 07:00 0.00 1.75 ---- 15 51.66 7139 12.30
04/26 08:00 0.00 1.75 ---- 15 51.57 7186 12.29
04/26 09:00 0.00 1.76 ---- 15 51.67 7231 12.37
04/26 10:00 0.00 1.76 ---- 15 52.30 7249 12.80
04/26 11:00 0.00 1.77 ---- 15 53.46 7241 13.01
04/26 12:00 0.00 1.78 ---- 16 55.63 7193 13.23
04/26 13:00 0.00 1.79 ---- 16 59.76 7090 13.48
04/26 14:00 0.00 1.80 ---- 17 64.11 6955 13.89
04/26 15:00 0.00 1.80 ---- 17 69.33 6862 14.14
04/26 16:00 0.00 1.80 ---- 17 69.53 6815 14.26
04/26 17:00 0.00 1.84 ---- 18 67.03 6714 13.84
04/26 18:00 0.00 1.88 ---- 20 64.11 6597 13.59
04/26 19:00 0.00 1.89 ---- 21 61.84 6259 13.05
04/26 20:00 0.00 1.88 ---- 20 60.40 6266 13.21
04/26 21:00 0.00 1.87 ---- 20 59.14 6318 12.71
04/26 22:00 0.00 1.86 ---- 19 58.26 6390 12.53
04/26 23:00 0.00 1.85 ---- 19 57.54 6455 12.50
Data processed at Mon 27Apr2026 04:30 GMT

NOTICE: If you are parsing this page

Please convert to using our Data API. Starting early 2026 we will be migrating to: https://water.usace.army.mil with modern pages rendered in JavaScript. When this migration completes you will no longer be able to scrape this page! CWMSDataAPI (CDA)

Timeseries IDs (TSIDs)

TSIDs used from left to right in the data table
COOL.Precip-Inc.Total.1Hour.1Hour.Ccp-Rev
COOL.Stage.Inst.1Hour.0.Ccp-Rev
COOL.Stage-Alt.Inst.1Hour.0.Ccp-Rev
COOL.Flow.Inst.1Hour.0.Ccp-Rev
COOL.Temp-Water.Inst.1Hour.0.Ccp-Rev
COOL.Cond.Inst.1Hour.0.Ccp-Rev
COOL.Volt-Battery Load.Inst.1Hour.0.Ccp-Rev

                            

All information presented herein is the property of the government of the United States of America and may be revised or deleted at any time without prior notice. Dissemination of this information without the expressed written consent of the Public Affairs Office, Tulsa District U.S. Army Corps of Engineers is strictly prohibited. These data are gathered electronically and, as presented, have NOT undergone any form of quality control. These data are NOT guaranteed to be valid or correct.